Razgrad, Bulgaria
Current Conditions -  °F | °C
As of 7:00 AM on Thursday 27 Nov 2014 (Local Time) from LBGO Reporting Station
Overcast Overcast  
Wind Chill: 25°   Ceiling: 2300
Heat Index: 30°   Visibility: 6mi
Dew Point: 25°   Wind: 4mph
Humidity: 80%   Direction: NA
Pressure: 30.27"   Gusts: NA
Location:  43.53°N, 26.53°E
Report Text: LBGO 270400Z VRB02MPS 9999 OVC023 M01/M04 Q1025 NOSIG
Loading
Personal Weather Stations






























Interactive Weather Map New forecast layout! Learn more

10-Day Weather Forecast

Advertisements
Track Severe Weather on mobile